createdAt,value
2023-03-23T15:58:12.652Z,18.97
2023-03-23T15:58:45.271Z,19.27
2023-03-23T15:59:16.733Z,19.77
2023-03-23T15:59:48.284Z,20.05
2023-03-23T16:00:20.498Z,19.00
2023-03-23T16:00:52.079Z,19.02
2023-03-23T16:01:27.448Z,17.77
2023-03-23T16:01:58.865Z,21.23
2023-03-23T16:02:30.400Z,18.92
2023-03-23T16:03:04.639Z,20.05
2023-03-23T16:03:41.942Z,19.73
2023-03-23T16:04:15.354Z,19.65
2023-03-23T16:04:48.054Z,19.67
2023-03-23T16:05:19.538Z,18.85
2023-03-23T16:05:51.276Z,20.75
2023-03-23T16:06:25.546Z,19.10
2023-03-23T16:06:57.309Z,18.98
2023-03-23T16:07:28.715Z,16.67
2023-03-23T16:08:00.779Z,17.45
2023-03-23T16:08:32.189Z,18.20
2023-03-23T16:09:04.682Z,18.08
2023-03-23T16:09:36.042Z,18.10
2023-03-23T16:10:08.015Z,17.33
2023-03-23T16:10:39.363Z,18.57
2023-03-23T16:11:14.445Z,16.77
2023-03-23T16:11:46.181Z,16.40
2023-03-23T16:12:17.519Z,16.90
2023-03-23T16:12:48.870Z,16.67
2023-03-23T16:13:20.295Z,17.48
2023-03-23T16:13:51.646Z,15.47
2023-03-23T16:14:23.011Z,15.57
2023-03-23T16:14:54.398Z,15.13
2023-03-23T16:15:25.766Z,16.20
2023-03-23T16:15:57.176Z,14.82
2023-03-23T16:16:34.316Z,15.82
2023-03-23T16:17:05.998Z,14.18
2023-03-23T16:17:38.806Z,14.23
2023-03-23T16:18:21.007Z,14.55
2023-03-23T16:18:52.502Z,14.38
2023-03-23T16:19:23.886Z,15.13
2023-03-23T16:19:55.211Z,14.50
2023-03-23T16:20:28.470Z,15.60
2023-03-23T16:20:59.864Z,17.05
2023-03-23T16:21:31.237Z,15.52
2023-03-23T16:22:02.568Z,16.48
2023-03-23T16:22:33.907Z,13.98
2023-03-23T16:23:05.278Z,14.80
2023-03-23T16:23:36.665Z,14.23
2023-03-23T16:24:08.565Z,13.77
2023-03-23T16:24:39.887Z,13.27
2023-03-23T16:25:11.584Z,15.30
2023-03-23T16:25:43.323Z,14.60
2023-03-23T16:26:15.319Z,15.70
2023-03-23T16:26:46.668Z,13.00
2023-03-23T16:27:18.022Z,14.35
2023-03-23T16:27:51.300Z,14.32
2023-03-23T16:28:23.528Z,13.82
2023-03-23T16:29:00.069Z,16.80
2023-03-23T16:30:02.410Z,16.00
2023-03-23T16:30:35.468Z,13.57
2023-03-23T16:31:07.047Z,15.70
2023-03-23T16:31:38.533Z,14.43
2023-03-23T16:32:09.890Z,14.82
2023-03-23T16:33:11.557Z,13.27
2023-03-23T16:33:42.938Z,13.02
2023-03-23T16:34:14.269Z,12.32
2023-03-23T16:34:45.601Z,15.40
2023-03-23T16:35:16.922Z,14.38
2023-03-23T16:35:48.289Z,11.75
2023-03-23T16:36:19.682Z,13.32
2023-03-23T16:36:51.075Z,11.93
2023-03-23T16:37:22.421Z,13.35
2023-03-23T16:38:07.861Z,10.77
2023-03-23T16:38:49.219Z,12.88
2023-03-23T16:39:21.491Z,11.13
2023-03-23T16:39:52.852Z,10.88
2023-03-23T16:40:24.424Z,10.25
2023-03-23T16:40:55.744Z,10.45
2023-03-23T16:41:27.113Z,9.52
2023-03-23T16:41:58.476Z,9.00
2023-03-23T16:42:29.838Z,9.77
2023-03-23T16:43:01.178Z,8.52
2023-03-23T16:43:32.528Z,9.00
2023-03-23T16:44:04.076Z,9.93
2023-03-23T16:44:35.415Z,11.48
2023-03-23T16:45:07.033Z,10.45
2023-03-23T16:45:41.015Z,9.52
2023-03-23T16:46:13.898Z,9.10
2023-03-23T16:46:45.509Z,10.18
2023-03-23T16:47:17.503Z,8.73
2023-03-23T16:47:48.908Z,8.88
2023-03-23T16:48:20.312Z,10.60
2023-03-23T16:48:51.684Z,10.73
2023-03-23T16:49:23.037Z,9.88
2023-03-23T16:49:54.381Z,9.77
2023-03-23T16:50:25.726Z,10.20
2023-03-23T16:50:57.073Z,10.80
2023-03-23T16:51:28.416Z,10.32
2023-03-23T16:51:59.788Z,10.93
2023-03-23T16:52:31.117Z,10.82
2023-03-23T16:53:03.085Z,10.48
2023-03-23T16:53:34.456Z,11.80
2023-03-23T16:54:05.768Z,13.35
2023-03-23T16:54:37.102Z,11.27
2023-03-23T16:55:09.734Z,9.87
2023-03-23T16:55:41.217Z,9.68
2023-03-23T16:56:12.788Z,9.85
2023-03-23T16:56:44.379Z,11.65
2023-03-23T16:57:15.757Z,10.35
2023-03-23T16:57:47.176Z,8.57
2023-03-23T16:58:18.595Z,9.88
2023-03-23T16:58:49.924Z,8.43
2023-03-23T16:59:21.283Z,8.75
2023-03-23T16:59:52.694Z,9.23
2023-03-23T17:00:24.361Z,8.68
2023-03-23T17:00:55.697Z,9.05
2023-03-23T17:01:27.099Z,9.68
2023-03-23T17:01:58.552Z,8.43
2023-03-23T17:02:30.088Z,8.82
2023-03-23T17:03:01.718Z,9.77
2023-03-23T17:03:33.220Z,8.07
2023-03-23T17:04:04.780Z,9.60
2023-03-23T17:04:36.134Z,8.43
2023-03-23T17:05:07.637Z,6.87
2023-03-23T17:05:39.142Z,6.28
2023-03-23T17:06:10.544Z,7.38
2023-03-23T17:06:41.886Z,6.97
2023-03-23T17:07:13.527Z,7.78
2023-03-23T17:07:45.089Z,7.57
2023-03-23T17:08:16.663Z,7.72
2023-03-23T17:08:48.062Z,7.88
2023-03-23T17:09:19.443Z,7.60
2023-03-23T17:09:50.827Z,6.30
2023-03-23T17:10:23.372Z,6.28
2023-03-23T17:10:55.015Z,8.00
2023-03-23T17:11:26.505Z,7.25
2023-03-23T17:11:57.848Z,7.63
2023-03-23T17:12:29.310Z,7.47
2023-03-23T17:13:00.817Z,7.60
2023-03-23T17:13:32.187Z,6.78
2023-03-23T17:14:03.949Z,6.75
2023-03-23T17:14:35.454Z,7.40
2023-03-23T17:15:07.521Z,7.38
2023-03-23T17:15:39.744Z,7.30
2023-03-23T17:16:11.129Z,9.13
2023-03-23T17:16:42.542Z,7.13
2023-03-23T17:17:13.946Z,6.10
2023-03-23T17:17:45.341Z,7.57
2023-03-23T17:18:16.795Z,7.78
2023-03-23T17:18:48.237Z,7.90
2023-03-23T17:19:19.607Z,7.15
2023-03-23T17:19:50.962Z,7.25
2023-03-23T17:20:22.993Z,7.78
2023-03-23T17:20:54.507Z,7.43
2023-03-23T17:21:26.081Z,7.55
2023-03-23T17:21:57.627Z,7.38
2023-03-23T17:22:29.282Z,7.50
2023-03-23T17:23:00.753Z,7.70
2023-03-23T17:23:32.134Z,7.95
2023-03-23T17:24:03.578Z,7.05
2023-03-23T17:24:34.913Z,7.90
2023-03-23T17:25:06.740Z,7.03
2023-03-23T17:25:38.180Z,6.68
2023-03-23T17:26:09.500Z,8.23
2023-03-23T17:26:40.909Z,7.68
2023-03-23T17:27:12.242Z,7.05
2023-03-23T17:27:43.661Z,7.63
2023-03-23T17:28:15.090Z,7.20
2023-03-23T17:28:46.489Z,8.77
2023-03-23T17:29:17.848Z,7.90
2023-03-23T17:29:49.213Z,8.25
2023-03-23T17:30:20.587Z,6.93
2023-03-23T17:30:52.410Z,6.30
2023-03-23T17:31:24.019Z,6.40
2023-03-23T17:31:55.504Z,6.60
2023-03-23T17:32:26.870Z,6.38
2023-03-23T17:32:58.249Z,5.85
2023-03-23T17:33:29.653Z,6.72
2023-03-23T17:34:01.034Z,6.30
2023-03-23T17:34:32.393Z,5.93
2023-03-23T17:35:04.355Z,7.65
2023-03-23T17:35:35.693Z,6.13
2023-03-23T17:36:07.246Z,7.55
2023-03-23T17:36:38.616Z,6.50
2023-03-23T17:37:10.001Z,7.38
2023-03-23T17:37:41.356Z,6.60
2023-03-23T17:38:12.841Z,7.20
2023-03-23T17:38:44.216Z,6.35
2023-03-23T17:39:15.562Z,5.78
2023-03-23T17:39:47.948Z,5.97
2023-03-23T17:40:19.391Z,6.53
2023-03-23T17:41:00.210Z,6.95
2023-03-23T17:41:31.633Z,6.35
2023-03-23T17:42:03.314Z,6.50
2023-03-23T17:42:34.640Z,6.85
2023-03-23T17:43:06.013Z,5.53
2023-03-23T17:43:38.070Z,5.95
2023-03-23T17:44:09.460Z,7.03
2023-03-23T17:44:40.829Z,6.05
2023-03-23T17:45:12.204Z,6.85
2023-03-23T17:45:45.686Z,6.22
2023-03-23T17:46:18.503Z,7.05
2023-03-23T17:46:50.097Z,5.65
2023-03-23T17:47:21.476Z,5.50
2023-03-23T17:47:52.954Z,5.55
2023-03-23T17:48:24.337Z,11.18
2023-03-23T17:48:55.724Z,6.47
2023-03-23T17:49:27.656Z,7.72
2023-03-23T17:49:59.014Z,6.47
2023-03-23T17:50:30.360Z,7.50
2023-03-23T17:51:01.819Z,7.28
2023-03-23T17:51:33.183Z,6.70
2023-03-23T17:52:04.686Z,7.13
2023-03-23T17:52:36.067Z,9.15
2023-03-23T17:53:07.417Z,8.35
2023-03-23T17:53:38.763Z,8.40
2023-03-23T17:54:10.175Z,8.27
2023-03-23T17:54:41.702Z,9.20
2023-03-23T17:55:13.091Z,9.18
2023-03-23T17:55:44.674Z,9.10
2023-03-23T17:56:16.186Z,7.72
2023-03-23T17:56:47.587Z,8.35
2023-03-23T17:57:18.977Z,9.73
2023-03-23T17:57:50.353Z,10.27
2023-03-23T17:58:22.155Z,10.73
2023-03-23T17:58:53.496Z,11.13
2023-03-23T17:59:25.448Z,9.55
2023-03-23T17:59:56.804Z,10.13
2023-03-23T18:00:28.193Z,8.60
2023-03-23T18:00:59.585Z,8.48
2023-03-23T18:01:31.047Z,7.93
2023-03-23T18:02:02.454Z,7.93
2023-03-23T18:02:33.989Z,8.30
2023-03-23T18:03:05.472Z,6.15
2023-03-23T18:03:36.852Z,7.60
2023-03-23T18:04:08.278Z,7.35
2023-03-23T18:04:40.089Z,8.80
2023-03-23T18:05:11.907Z,6.07
2023-03-23T18:05:43.545Z,4.80
2023-03-23T18:06:15.054Z,5.85
2023-03-23T18:06:46.442Z,6.55
2023-03-23T18:07:17.781Z,5.32
2023-03-23T18:07:49.143Z,5.90
2023-03-23T18:08:20.500Z,6.28
2023-03-23T18:08:51.851Z,5.88
2023-03-23T18:09:23.544Z,6.60
2023-03-23T18:10:00.990Z,6.25
2023-03-23T18:10:32.639Z,6.15
2023-03-23T18:11:04.627Z,6.55
2023-03-23T18:11:35.976Z,7.15
2023-03-23T18:12:07.412Z,7.95
2023-03-23T18:12:39.881Z,7.80
2023-03-23T18:13:11.380Z,6.87
2023-03-23T18:13:42.791Z,6.63
2023-03-23T18:14:14.131Z,5.78
2023-03-23T18:14:45.497Z,6.25
2023-03-23T18:15:17.181Z,5.22
2023-03-23T18:15:48.718Z,6.75
2023-03-23T18:16:20.221Z,5.43
2023-03-23T18:16:51.606Z,5.72
2023-03-23T18:17:23.047Z,6.07
2023-03-23T18:17:54.909Z,6.53
2023-03-23T18:18:26.675Z,6.10
2023-03-23T18:18:58.063Z,5.43
2023-03-23T18:19:29.388Z,6.18
2023-03-23T18:20:00.749Z,4.90
2023-03-23T18:20:32.273Z,6.35
2023-03-23T18:21:06.197Z,6.18
2023-03-23T18:21:37.566Z,6.03
2023-03-23T18:22:08.919Z,6.13
2023-03-23T18:22:40.306Z,6.35
2023-03-23T18:23:11.820Z,5.22
2023-03-23T18:23:53.015Z,5.68
2023-03-23T18:24:28.204Z,5.40
2023-03-23T18:24:59.772Z,5.28
2023-03-23T18:25:31.126Z,4.97
2023-03-23T18:26:03.316Z,5.93
2023-03-23T18:26:34.957Z,5.32
2023-03-23T18:27:06.292Z,5.78
2023-03-23T18:27:37.639Z,4.70
2023-03-23T18:28:09.016Z,4.63
2023-03-23T18:28:40.400Z,5.38
2023-03-23T18:29:11.763Z,4.18
2023-03-23T18:29:43.155Z,6.07
2023-03-23T18:30:14.901Z,5.30
2023-03-23T18:30:46.738Z,5.60
2023-03-23T18:31:19.136Z,4.80
2023-03-23T18:31:50.569Z,4.50
2023-03-23T18:32:21.922Z,4.75
2023-03-23T18:32:53.271Z,4.60
2023-03-23T18:33:56.562Z,5.55
2023-03-23T18:34:27.931Z,4.50
2023-03-23T18:34:59.291Z,4.93
2023-03-23T18:35:30.739Z,4.07
2023-03-23T18:36:02.354Z,3.47
2023-03-23T18:36:33.852Z,5.63
2023-03-23T18:37:05.273Z,5.45
2023-03-23T18:37:37.324Z,6.25
2023-03-23T18:38:08.785Z,5.15
2023-03-23T18:38:40.139Z,5.03
2023-03-23T18:39:11.501Z,4.35
2023-03-23T18:39:42.863Z,5.05
2023-03-23T18:40:14.488Z,4.45
2023-03-23T18:40:46.455Z,5.03
2023-03-23T18:41:18.331Z,4.43
2023-03-23T18:41:49.720Z,4.68
2023-03-23T18:42:21.084Z,3.83
2023-03-23T18:42:52.467Z,4.32
2023-03-23T18:43:23.974Z,4.78
2023-03-23T18:43:56.369Z,3.38
2023-03-23T18:44:29.019Z,4.30
2023-03-23T18:45:00.367Z,4.60
2023-03-23T18:45:31.774Z,3.95
2023-03-23T18:46:03.551Z,4.95
2023-03-23T18:46:35.156Z,4.25
2023-03-23T18:47:06.498Z,4.30
2023-03-23T18:47:38.034Z,3.60
2023-03-23T18:48:09.537Z,4.57
2023-03-23T18:48:40.939Z,4.13
2023-03-23T18:49:12.284Z,5.00
2023-03-23T18:49:43.669Z,3.63
2023-03-23T18:50:15.106Z,3.28
2023-03-23T18:50:50.406Z,3.72
2023-03-23T18:51:22.019Z,4.38
2023-03-23T18:51:53.351Z,4.63
2023-03-23T18:52:24.741Z,3.75
2023-03-23T18:52:56.121Z,4.63
2023-03-23T18:53:27.796Z,3.40
2023-03-23T18:53:59.194Z,2.75
2023-03-23T18:54:30.557Z,4.25
2023-03-23T18:55:01.957Z,4.05
2023-03-23T18:55:33.296Z,3.20
2023-03-23T18:56:06.151Z,3.08
2023-03-23T18:56:37.518Z,3.10
2023-03-23T18:57:08.947Z,3.95
2023-03-23T18:57:40.604Z,3.42
2023-03-23T18:58:12.555Z,4.13
2023-03-23T18:58:44.570Z,5.28
2023-03-23T18:59:15.942Z,3.20
2023-03-23T18:59:47.362Z,3.60
2023-03-23T19:00:18.729Z,3.42
2023-03-23T19:00:50.075Z,3.22
2023-03-23T19:01:21.522Z,2.60
2023-03-23T19:01:52.960Z,3.00
2023-03-23T19:02:24.350Z,2.80
2023-03-23T19:02:55.800Z,3.38
2023-03-23T19:03:27.332Z,3.50
2023-03-23T19:03:58.688Z,3.40
2023-03-23T19:04:30.119Z,2.65
2023-03-23T19:05:01.838Z,2.73
2023-03-23T19:05:34.331Z,4.20
2023-03-23T19:06:06.082Z,5.22
2023-03-23T19:06:37.426Z,4.00
2023-03-23T19:07:08.942Z,3.20
2023-03-23T19:07:40.286Z,4.25
2023-03-23T19:08:11.685Z,3.15
2023-03-23T19:08:43.206Z,3.30
2023-03-23T19:09:16.995Z,2.95
2023-03-23T19:09:48.356Z,3.28
2023-03-23T19:10:22.608Z,4.03
2023-03-23T19:10:58.462Z,3.08
2023-03-23T19:11:29.857Z,4.43
2023-03-23T19:12:01.234Z,3.60
2023-03-23T19:12:32.592Z,3.23
2023-03-23T19:13:03.951Z,2.65
2023-03-23T19:13:35.262Z,2.80
2023-03-23T19:14:06.729Z,3.65
2023-03-23T19:14:38.936Z,2.65
2023-03-23T19:15:10.295Z,3.30
2023-03-23T19:15:41.987Z,3.47
2023-03-23T19:16:13.587Z,2.92
2023-03-23T19:16:45.338Z,3.38
2023-03-23T19:17:16.687Z,2.78
2023-03-23T19:17:48.117Z,4.40
2023-03-23T19:18:19.912Z,3.33
2023-03-23T19:18:51.258Z,3.78
2023-03-23T19:19:24.826Z,4.03
2023-03-23T19:19:57.998Z,4.20
2023-03-23T19:21:39.702Z,3.78
2023-03-23T19:22:11.999Z,4.15
2023-03-23T19:22:43.348Z,3.88
2023-03-23T19:23:14.689Z,3.72
2023-03-23T19:23:46.014Z,4.03
2023-03-23T19:24:17.347Z,3.78
2023-03-23T19:24:48.703Z,2.83
2023-03-23T19:25:20.061Z,2.90
2023-03-23T19:25:52.756Z,3.70
2023-03-23T19:26:27.369Z,4.38
2023-03-23T19:26:58.795Z,3.88
2023-03-23T19:27:30.148Z,4.50
2023-03-23T19:29:48.407Z,3.08
2023-03-23T19:30:20.015Z,2.80
2023-03-23T19:30:54.088Z,4.32
2023-03-23T19:31:25.471Z,3.80
2023-03-23T19:31:57.689Z,4.13
2023-03-23T19:32:29.110Z,3.55
2023-03-23T19:33:00.630Z,5.20
2023-03-23T19:33:32.005Z,5.45
2023-03-23T19:34:03.608Z,4.97
2023-03-23T19:34:34.955Z,4.18
2023-03-23T19:35:06.539Z,4.15
2023-03-23T19:35:39.064Z,5.63
2023-03-23T19:36:13.183Z,4.20
2023-03-23T19:36:53.225Z,5.07
2023-03-23T19:37:25.271Z,5.30
2023-03-23T19:37:56.664Z,5.15
2023-03-23T19:38:27.991Z,4.78
2023-03-23T19:39:02.989Z,9.13
2023-03-23T19:39:34.612Z,7.97
2023-03-23T19:40:24.284Z,6.03
2023-03-23T19:40:58.024Z,4.95
2023-03-23T19:41:29.568Z,4.68
2023-03-23T19:42:00.936Z,4.68
2023-03-23T19:42:32.977Z,4.13
2023-03-23T19:43:05.941Z,4.28
2023-03-23T19:43:37.868Z,3.67
2023-03-23T19:44:09.250Z,3.88
2023-03-23T19:44:41.253Z,4.45
2023-03-23T19:45:12.673Z,4.32
2023-03-23T19:45:44.276Z,4.07
2023-03-23T19:46:16.090Z,4.25
2023-03-23T19:46:47.501Z,5.22
2023-03-23T19:47:18.912Z,4.72
2023-03-23T19:47:50.281Z,6.70
2023-03-23T19:48:21.671Z,6.00
2023-03-23T19:48:53.155Z,4.10
2023-03-23T19:49:25.276Z,5.53
2023-03-23T19:49:56.688Z,4.57
2023-03-23T19:50:28.030Z,4.82
2023-03-23T19:50:59.339Z,4.38
2023-03-23T19:51:30.695Z,5.70
2023-03-23T19:52:06.393Z,4.22
2023-03-23T19:53:13.914Z,5.68
2023-03-23T19:53:45.512Z,4.80
2023-03-23T19:54:16.906Z,5.47
2023-03-23T19:54:48.296Z,4.38
2023-03-23T19:55:19.650Z,5.55
2023-03-23T19:55:51.257Z,5.97
2023-03-23T19:56:23.163Z,3.80
2023-03-23T19:56:54.579Z,4.38
2023-03-23T19:57:26.364Z,4.25
2023-03-23T19:57:58.088Z,5.40
2023-03-23T19:58:29.824Z,5.03
2023-03-23T19:59:01.760Z,4.05
2023-03-23T19:59:33.625Z,4.32
2023-03-23T20:00:05.612Z,4.50
2023-03-23T20:00:37.079Z,7.32
2023-03-23T20:01:08.474Z,5.50
2023-03-23T20:01:40.077Z,4.93
2023-03-23T20:02:12.277Z,5.00
2023-03-23T20:02:43.927Z,5.30
2023-03-23T20:03:15.970Z,4.47
2023-03-23T20:03:47.424Z,5.03
2023-03-23T20:04:18.798Z,5.22
2023-03-23T20:04:50.211Z,4.70
2023-03-23T20:05:22.342Z,4.85
2023-03-23T20:05:59.069Z,4.45
2023-03-23T20:06:30.470Z,3.83
2023-03-23T20:07:02.928Z,4.63
2023-03-23T20:07:34.719Z,4.70
2023-03-23T20:08:06.401Z,3.92
2023-03-23T20:08:45.458Z,3.42
2023-03-23T20:09:17.698Z,3.00
2023-03-23T20:09:49.784Z,3.10
2023-03-23T20:10:21.192Z,5.38
2023-03-23T20:10:52.591Z,4.07
2023-03-23T20:11:23.920Z,5.10
2023-03-23T20:11:55.283Z,6.97
2023-03-23T20:12:26.711Z,6.82
2023-03-23T20:12:58.067Z,4.13
2023-03-23T20:13:29.438Z,3.35
2023-03-23T20:14:00.779Z,3.10
2023-03-23T20:14:32.115Z,3.28
2023-03-23T20:15:03.617Z,3.58
2023-03-23T20:15:34.972Z,3.67
2023-03-23T20:16:06.634Z,2.70
2023-03-23T20:16:38.014Z,3.47
2023-03-23T20:17:10.104Z,2.60
2023-03-23T20:17:41.501Z,2.97
2023-03-23T20:18:12.971Z,2.60
2023-03-23T20:18:44.838Z,3.05
2023-03-23T20:19:16.466Z,3.35
2023-03-23T20:19:47.883Z,3.10
2023-03-23T20:20:20.289Z,3.10
2023-03-23T20:20:52.682Z,3.03
2023-03-23T20:21:24.995Z,2.70
2023-03-23T20:21:56.523Z,2.63
2023-03-23T20:22:27.987Z,2.95
2023-03-23T20:22:59.638Z,2.78
2023-03-23T20:23:31.238Z,2.78
2023-03-23T20:24:02.600Z,2.13
2023-03-23T20:24:34.073Z,2.47
2023-03-23T20:25:05.914Z,2.92
2023-03-23T20:25:37.387Z,2.47
2023-03-23T20:26:11.703Z,4.20
2023-03-23T20:26:43.764Z,2.78
2023-03-23T20:27:15.590Z,3.42
2023-03-23T20:27:46.932Z,3.22
2023-03-23T20:28:18.283Z,3.17
2023-03-23T20:28:49.687Z,2.88
2023-03-23T20:29:21.026Z,2.83
2023-03-23T20:29:52.366Z,3.00
2023-03-23T20:30:23.745Z,3.05
2023-03-23T20:31:19.503Z,2.47
2023-03-23T20:31:54.390Z,2.95
2023-03-23T20:32:25.737Z,3.58
2023-03-23T20:32:58.393Z,3.13
2023-03-23T20:33:30.055Z,3.38
2023-03-23T20:34:02.916Z,4.07
2023-03-23T20:34:34.373Z,2.25
2023-03-23T20:35:06.442Z,2.90
2023-03-23T20:35:37.875Z,2.53
2023-03-23T20:36:09.253Z,3.10
2023-03-23T20:36:44.542Z,3.85
2023-03-23T20:37:16.467Z,3.70
2023-03-23T20:37:47.860Z,3.40
2023-03-23T20:38:19.194Z,3.00
2023-03-23T20:38:50.552Z,3.90
2023-03-23T20:39:21.889Z,3.55
2023-03-23T20:39:53.204Z,3.95
2023-03-23T20:40:24.547Z,4.15
2023-03-23T20:40:56.434Z,2.85
2023-03-23T20:41:27.782Z,3.17
2023-03-23T20:42:00.101Z,2.83
2023-03-23T20:42:31.447Z,3.10
2023-03-23T20:43:02.812Z,2.85
2023-03-23T20:43:34.553Z,3.50
2023-03-23T20:44:08.653Z,3.70
2023-03-23T20:44:40.169Z,3.78
2023-03-23T20:45:12.609Z,3.42
2023-03-23T20:45:44.185Z,2.67
2023-03-23T20:46:16.057Z,2.90
2023-03-23T20:46:48.102Z,3.05
2023-03-23T20:47:19.469Z,2.72
2023-03-23T20:47:50.898Z,3.25
2023-03-23T20:48:22.529Z,3.35
2023-03-23T20:48:54.125Z,2.85
2023-03-23T20:49:25.644Z,3.90
2023-03-23T20:49:57.390Z,3.60
2023-03-23T20:50:28.819Z,3.40
2023-03-23T20:51:00.902Z,4.13
2023-03-23T20:51:32.513Z,3.60
2023-03-23T20:52:04.956Z,4.00
2023-03-23T20:52:36.499Z,3.50
2023-03-23T20:53:07.830Z,3.15
2023-03-23T20:53:39.219Z,3.70
2023-03-23T20:54:10.884Z,4.85
2023-03-23T20:54:42.244Z,3.45
2023-03-23T20:55:13.603Z,4.60
2023-03-23T20:55:45.101Z,5.45
2023-03-23T20:56:16.572Z,4.53
2023-03-23T20:56:48.357Z,4.75
2023-03-23T20:57:19.863Z,4.45
2023-03-23T20:57:51.216Z,4.38
2023-03-23T20:58:22.586Z,4.00
2023-03-23T20:58:54.032Z,6.00
2023-03-23T20:59:25.452Z,4.18
2023-03-23T20:59:56.802Z,3.92
2023-03-23T21:00:28.300Z,4.22
2023-03-23T21:01:00.440Z,4.63
2023-03-23T21:01:31.808Z,4.88
2023-03-23T21:02:03.084Z,5.68
2023-03-23T21:02:34.494Z,6.10
2023-03-23T21:03:05.909Z,5.88
2023-03-23T21:03:40.040Z,5.72
2023-03-23T21:04:13.553Z,4.83
2023-03-23T21:04:44.936Z,5.50
2023-03-23T21:05:16.295Z,7.22
2023-03-23T21:05:47.641Z,5.30
2023-03-23T21:06:19.288Z,5.60
2023-03-23T21:06:50.644Z,5.80
2023-03-23T21:07:22.047Z,6.00
2023-03-23T21:07:53.427Z,5.32
2023-03-23T21:08:24.820Z,6.47
2023-03-23T21:08:56.940Z,7.47
2023-03-23T21:09:28.534Z,6.03
2023-03-23T21:09:59.971Z,6.63
2023-03-23T21:10:31.311Z,8.63
2023-03-23T21:11:03.420Z,6.97
2023-03-23T21:11:34.986Z,5.13
2023-03-23T21:12:06.924Z,5.18
2023-03-23T21:12:38.254Z,5.85
2023-03-23T21:13:09.934Z,6.65
2023-03-23T21:13:41.270Z,6.13
2023-03-23T21:14:13.064Z,5.85
2023-03-23T21:14:44.426Z,6.65
2023-03-23T21:15:15.814Z,6.97
2023-03-23T21:15:47.467Z,5.63
2023-03-23T21:16:18.876Z,7.40
2023-03-23T21:16:50.380Z,6.53
2023-03-23T21:17:21.874Z,7.35
2023-03-23T21:17:53.477Z,9.95
2023-03-23T21:18:24.910Z,7.47
2023-03-23T21:18:56.353Z,9.45
2023-03-23T21:19:28.616Z,10.63
2023-03-23T21:19:59.974Z,7.63
2023-03-23T21:20:31.329Z,8.73
2023-03-23T21:21:02.796Z,9.60
2023-03-23T21:21:34.211Z,10.02
2023-03-23T21:22:05.625Z,10.65
2023-03-23T21:22:36.975Z,10.32
2023-03-23T21:23:08.320Z,8.77
2023-03-23T21:23:39.808Z,9.05
2023-03-23T21:24:11.705Z,9.07
2023-03-23T21:24:43.057Z,8.18
2023-03-23T21:25:14.399Z,7.10
2023-03-23T21:25:46.446Z,9.15
2023-03-23T21:26:20.058Z,9.13
2023-03-23T21:26:51.392Z,7.72
2023-03-23T21:27:22.785Z,7.45
2023-03-23T21:27:54.142Z,8.68
2023-03-23T21:28:25.513Z,8.80
2023-03-23T21:28:56.955Z,7.55
2023-03-23T21:29:28.672Z,7.45
2023-03-23T21:30:00.050Z,7.03
2023-03-23T21:30:31.476Z,6.97
2023-03-23T21:31:04.167Z,6.13
2023-03-23T21:31:36.338Z,6.82
2023-03-23T21:32:08.908Z,6.20
2023-03-23T21:32:40.437Z,6.57
2023-03-23T21:33:12.733Z,9.05
2023-03-23T21:33:44.128Z,7.65
2023-03-23T21:34:15.491Z,5.70
2023-03-23T21:34:46.851Z,8.18
2023-03-23T21:35:18.268Z,9.68
2023-03-23T21:35:49.633Z,7.68
2023-03-23T21:36:21.030Z,7.00
2023-03-23T21:36:52.343Z,7.38
2023-03-23T21:37:24.082Z,6.97
2023-03-23T21:37:55.422Z,7.03
2023-03-23T21:38:27.100Z,7.55
2023-03-23T21:38:58.487Z,6.00
2023-03-23T21:39:29.966Z,8.07
2023-03-23T21:40:01.327Z,6.82
2023-03-23T21:40:32.731Z,7.43
2023-03-23T21:41:08.759Z,7.57
2023-03-23T21:41:42.594Z,8.43
2023-03-23T21:42:14.313Z,6.63
2023-03-23T21:42:46.282Z,7.78
2023-03-23T21:43:17.634Z,8.15
2023-03-23T21:43:49.110Z,7.20
2023-03-23T21:44:20.507Z,7.40
2023-03-23T21:44:51.839Z,7.37
2023-03-23T21:45:23.326Z,7.63
2023-03-23T21:45:56.140Z,8.38
2023-03-23T21:46:27.656Z,8.57
2023-03-23T21:46:58.980Z,7.63
2023-03-23T21:47:30.760Z,6.80
2023-03-23T21:48:02.208Z,8.50
2023-03-23T21:48:33.608Z,9.75
2023-03-23T21:49:05.613Z,6.90
2023-03-23T21:49:41.276Z,7.25
2023-03-23T21:50:12.850Z,7.97
2023-03-23T21:50:44.329Z,8.15
2023-03-23T21:51:15.880Z,7.85
2023-03-23T21:51:47.281Z,7.60
2023-03-23T21:52:18.628Z,8.18
2023-03-23T21:52:50.287Z,7.78
2023-03-23T21:53:21.704Z,6.75
2023-03-23T21:53:53.960Z,8.52
2023-03-23T21:54:25.389Z,7.85
2023-03-23T21:54:56.889Z,8.38
2023-03-23T21:55:28.351Z,6.65
2023-03-23T21:55:59.691Z,9.30
2023-03-23T21:56:31.577Z,8.05
2023-03-23T21:57:03.016Z,6.83
2023-03-23T21:57:34.387Z,7.40
2023-03-23T21:58:05.730Z,6.28
2023-03-23T21:58:37.748Z,7.78
2023-03-23T21:59:09.136Z,7.22
2023-03-23T21:59:40.508Z,8.10
2023-03-23T22:00:12.296Z,7.78
2023-03-23T22:00:45.757Z,7.07
2023-03-23T22:01:17.866Z,6.97
2023-03-23T22:01:49.269Z,8.35
2023-03-23T22:02:20.702Z,5.68
2023-03-23T22:02:52.474Z,7.07
2023-03-23T22:03:24.624Z,7.80
2023-03-23T22:03:56.888Z,9.60
2023-03-23T22:04:28.320Z,7.32
2023-03-23T22:04:59.921Z,6.72
2023-03-23T22:05:31.604Z,7.68
2023-03-23T22:06:07.752Z,7.20
2023-03-23T22:06:39.261Z,7.35
2023-03-23T22:07:10.622Z,7.75
2023-03-23T22:07:41.989Z,7.18
2023-03-23T22:08:13.410Z,9.35
2023-03-23T22:08:45.634Z,7.53
2023-03-23T22:09:17.309Z,7.22
2023-03-23T22:09:48.678Z,7.05
2023-03-23T22:10:20.068Z,7.40
2023-03-23T22:11:01.172Z,7.95
2023-03-23T22:11:33.540Z,7.25
2023-03-23T22:12:04.950Z,8.70
2023-03-23T22:12:36.799Z,7.18
2023-03-23T22:13:08.719Z,7.07
2023-03-23T22:13:40.436Z,11.15
2023-03-23T22:14:12.004Z,8.85
2023-03-23T22:14:43.880Z,8.05
2023-03-23T22:15:15.263Z,7.60
2023-03-23T22:15:47.355Z,8.80
2023-03-23T22:16:19.250Z,6.68
2023-03-23T22:16:50.626Z,8.82
2023-03-23T22:17:22.010Z,6.95
2023-03-23T22:17:54.073Z,8.60
2023-03-23T22:18:25.679Z,7.85
2023-03-23T22:19:00.047Z,7.37
2023-03-23T22:19:31.799Z,7.47
2023-03-23T22:20:07.118Z,9.20
2023-03-23T22:20:38.721Z,7.03
2023-03-23T22:21:10.130Z,8.55
2023-03-23T22:21:41.497Z,8.15
2023-03-23T22:22:12.869Z,7.18
2023-03-23T22:22:44.571Z,7.55
2023-03-23T22:23:15.944Z,9.93
2023-03-23T22:23:47.291Z,7.78
2023-03-23T22:24:18.721Z,6.63
2023-03-23T22:24:50.153Z,6.97
2023-03-23T22:25:21.571Z,7.75
2023-03-23T22:25:53.333Z,7.07
2023-03-23T22:26:24.969Z,6.82
2023-03-23T22:26:56.381Z,8.70
2023-03-23T22:27:27.735Z,7.47
2023-03-23T22:27:59.681Z,6.93
2023-03-23T22:28:31.108Z,6.30
2023-03-23T22:29:02.547Z,8.38
2023-03-23T22:29:33.946Z,6.70
2023-03-23T22:30:05.883Z,6.35
2023-03-23T22:30:37.248Z,10.50
2023-03-23T22:31:10.789Z,8.07
2023-03-23T22:31:42.487Z,6.97
2023-03-23T22:32:13.915Z,7.88
2023-03-23T22:32:45.318Z,7.25
2023-03-23T22:33:16.712Z,7.18
2023-03-23T22:33:48.842Z,6.38
2023-03-23T22:34:20.456Z,7.78
2023-03-23T22:34:51.814Z,7.45
2023-03-23T22:35:23.774Z,7.45
2023-03-23T22:35:55.293Z,7.07
2023-03-23T22:36:27.972Z,7.80
2023-03-23T22:36:59.349Z,7.90
2023-03-23T22:37:30.727Z,7.93
2023-03-23T22:38:02.091Z,9.63
2023-03-23T22:38:34.364Z,7.45
2023-03-23T22:39:06.318Z,7.65
2023-03-23T22:39:37.701Z,7.40
2023-03-23T22:40:09.224Z,7.32
2023-03-23T22:40:40.603Z,8.70
2023-03-23T22:41:15.591Z,11.63
2023-03-23T22:41:46.995Z,9.55
2023-03-23T22:42:18.435Z,7.93
2023-03-23T22:42:50.289Z,9.52
2023-03-23T22:43:21.692Z,7.53
2023-03-23T22:43:53.347Z,7.68
2023-03-23T22:44:24.714Z,9.18
2023-03-23T22:44:56.095Z,7.95
2023-03-23T22:45:27.580Z,7.55
2023-03-23T22:45:59.253Z,7.15
2023-03-23T22:46:30.737Z,8.18
2023-03-23T22:47:02.157Z,7.15
2023-03-23T22:47:33.588Z,8.85
2023-03-23T22:48:05.040Z,7.15
2023-03-23T22:48:36.519Z,7.82
2023-03-23T22:49:07.942Z,8.38
2023-03-23T22:49:39.341Z,8.52
2023-03-23T22:50:10.718Z,7.32
2023-03-23T22:50:42.103Z,6.85
2023-03-23T22:51:14.541Z,7.65
2023-03-23T22:51:45.953Z,7.65
2023-03-23T22:52:17.323Z,7.72
2023-03-23T22:52:48.721Z,7.75
2023-03-23T22:53:20.524Z,7.53
2023-03-23T22:53:52.036Z,7.68
2023-03-23T22:54:23.419Z,6.38
2023-03-23T22:54:54.792Z,7.15
2023-03-23T22:55:26.223Z,8.18
2023-03-23T22:55:57.636Z,6.20
2023-03-23T22:56:29.029Z,8.93
2023-03-23T22:57:01.038Z,6.97
2023-03-23T22:57:32.980Z,8.10
2023-03-23T22:58:04.315Z,9.18
2023-03-23T22:58:35.725Z,7.20
2023-03-23T22:59:07.545Z,6.75
2023-03-23T22:59:38.957Z,5.93
2023-03-23T23:00:11.166Z,5.72
2023-03-23T23:00:46.965Z,7.20
2023-03-23T23:01:19.540Z,6.10
2023-03-23T23:01:50.942Z,9.10
2023-03-23T23:02:22.399Z,6.95
2023-03-23T23:02:53.946Z,7.85
2023-03-23T23:03:26.042Z,7.18
2023-03-23T23:03:57.419Z,7.28
2023-03-23T23:04:28.861Z,8.07
2023-03-23T23:05:00.238Z,8.48
2023-03-23T23:05:31.611Z,7.65